Time;durP1;ratioP1;P1;durP2;ratioP2;P2;SDS_P1;SDS_P2;PMS_P1;PMS_P2;Temp;Humidity;BMP_temperature;BMP_pressure;BME280_temperature;BME280_humidity;BME280_pressure;Samples;Min_cycle;Max_cycle;Signal;HPM_P1;HPM_P2
2022/07/11 00:01:49;;;;;;;2.42;2.10;;;28.10;1.00;;;;;;5153634;27;20019;-44
2022/07/11 00:04:14;;;;;;;5.30;2.13;;;27.90;1.00;;;;;;5146337;27;20376;-46
2022/07/11 00:06:40;;;;;;;5.93;1.92;;;27.90;1.00;;;;;;5152139;27;20416;-47
2022/07/11 00:09:06;;;;;;;6.10;2.88;;;27.90;1.00;;;;;;5152458;27;20026;-47
2022/07/11 00:11:31;;;;;;;4.43;2.20;;;27.80;1.00;;;;;;5134529;27;20027;-50
2022/07/11 00:13:57;;;;;;;5.03;2.30;;;27.70;1.00;;;;;;5153253;27;21820;-50
2022/07/11 00:16:22;;;;;;;2.22;1.80;;;27.50;1.00;;;;;;5139367;27;20044;-51
2022/07/11 00:18:48;;;;;;;6.10;2.30;;;27.60;1.00;;;;;;5143157;27;20059;-45
2022/07/11 00:21:14;;;;;;;5.70;2.00;;;27.40;1.00;;;;;;5151380;27;20045;-44
2022/07/11 00:23:39;;;;;;;6.85;1.55;;;27.50;1.00;;;;;;5149678;27;20018;-47
2022/07/11 00:26:05;;;;;;;3.50;2.05;;;27.90;1.00;;;;;;5144661;27;20574;-46
2022/07/11 00:28:31;;;;;;;4.03;1.70;;;27.90;1.00;;;;;;5132987;27;20056;-49
2022/07/11 00:30:56;;;;;;;1.85;1.33;;;27.80;1.00;;;;;;5149345;27;20039;-52
2022/07/11 00:33:22;;;;;;;2.40;1.75;;;27.80;1.00;;;;;;5152343;27;20109;-47
2022/07/11 00:35:48;;;;;;;5.60;2.00;;;27.50;1.00;;;;;;5151994;27;20479;-48
2022/07/11 00:38:13;;;;;;;5.22;1.92;;;27.50;1.00;;;;;;5153198;27;20547;-46
2022/07/11 00:40:39;;;;;;;4.32;1.50;;;27.30;1.00;;;;;;5145779;27;20027;-45
2022/07/11 00:43:05;;;;;;;3.75;1.25;;;27.20;1.00;;;;;;5141666;27;20069;-47
2022/07/11 00:45:31;;;;;;;5.72;1.58;;;27.30;1.00;;;;;;5146966;27;20034;-46
2022/07/11 00:47:57;;;;;;;4.63;2.00;;;27.20;1.00;;;;;;5148936;27;20027;-46
2022/07/11 00:50:24;;;;;;;4.88;1.45;;;27.30;1.00;;;;;;5142125;27;20022;-45
2022/07/11 00:52:54;;;;;;;4.63;1.50;;;27.10;1.00;;;;;;5135038;27;20088;-50
2022/07/11 00:55:21;;;;;;;3.20;1.60;;;27.00;1.00;;;;;;5137302;27;20587;-45
2022/07/11 00:57:48;;;;;;;2.63;1.30;;;26.90;1.00;;;;;;5144306;27;20078;-46
2022/07/11 01:00:14;;;;;;;3.35;1.52;;;27.10;1.00;;;;;;5144120;27;20022;-44
2022/07/11 01:02:40;;;;;;;2.35;1.35;;;27.00;1.00;;;;;;5153372;27;20029;-46
2022/07/11 01:05:06;;;;;;;2.97;1.67;;;26.90;1.00;;;;;;5151545;27;20483;-45
2022/07/11 01:07:32;;;;;;;4.28;1.70;;;26.90;1.00;;;;;;5147553;27;20027;-45
2022/07/11 01:09:58;;;;;;;4.50;1.52;;;26.90;1.00;;;;;;5141276;27;21774;-44
2022/07/11 01:12:24;;;;;;;2.60;1.42;;;26.80;1.00;;;;;;5153297;27;20054;-45
2022/07/11 01:14:54;;;;;;;2.53;1.75;;;26.80;1.00;;;;;;5152271;27;20026;-45
2022/07/11 01:17:20;;;;;;;2.17;1.20;;;26.90;1.00;;;;;;5137123;27;20045;-46
2022/07/11 01:19:45;;;;;;;2.25;1.13;;;26.90;1.00;;;;;;5148531;27;20443;-45
2022/07/11 01:22:14;;;;;;;2.53;1.20;;;27.00;1.00;;;;;;5150650;27;20098;-47
2022/07/11 01:24:41;;;;;;;1.60;1.23;;;26.90;1.00;;;;;;5151737;27;20491;-46
2022/07/11 01:27:07;;;;;;;3.45;1.50;;;26.80;1.00;;;;;;5137314;27;20031;-46
2022/07/11 01:29:33;;;;;;;2.97;1.23;;;27.10;1.00;;;;;;5148871;27;20023;-45
2022/07/11 01:31:58;;;;;;;2.17;1.35;;;27.20;1.00;;;;;;5151606;27;20015;-48
2022/07/11 01:34:24;;;;;;;3.92;1.33;;;27.30;1.00;;;;;;5150530;27;20051;-47
2022/07/11 01:36:49;;;;;;;1.40;1.05;;;27.30;1.00;;;;;;5153677;27;20057;-46
2022/07/11 01:39:15;;;;;;;1.30;1.20;;;27.30;1.00;;;;;;5154168;27;20026;-47
2022/07/11 01:41:41;;;;;;;1.17;1.08;;;27.20;1.00;;;;;;5154916;27;20030;-45
2022/07/11 01:44:07;;;;;;;1.58;1.02;;;27.10;1.00;;;;;;5154019;27;20029;-45
2022/07/11 01:46:32;;;;;;;3.53;1.42;;;26.90;1.00;;;;;;5155405;27;20190;-46
2022/07/11 01:48:58;;;;;;;1.48;1.10;;;26.80;1.00;;;;;;5155278;27;20046;-46
2022/07/11 01:51:24;;;;;;;1.58;1.17;;;27.10;1.00;;;;;;5152167;27;20459;-46
2022/07/11 01:53:50;;;;;;;4.30;1.35;;;27.10;1.00;;;;;;5152424;27;20187;-45
2022/07/11 01:56:16;;;;;;;1.95;1.08;;;27.20;1.00;;;;;;5153672;27;20539;-46
2022/07/11 01:58:42;;;;;;;2.08;1.17;;;27.30;1.00;;;;;;5147179;27;20106;-46
2022/07/11 02:01:07;;;;;;;1.25;1.15;;;27.10;1.00;;;;;;5155142;27;20100;-45
2022/07/11 02:03:33;;;;;;;2.70;1.25;;;27.00;1.00;;;;;;5144496;27;20019;-46
2022/07/11 02:05:59;;;;;;;3.35;1.25;;;27.10;1.00;;;;;;5151321;27;20488;-46
2022/07/11 02:08:24;;;;;;;1.98;1.30;;;27.20;1.00;;;;;;5154962;27;20032;-46
2022/07/11 02:10:51;;;;;;;1.95;1.25;;;27.10;1.00;;;;;;5154677;27;20432;-49
2022/07/11 02:13:19;;;;;;;1.40;1.08;;;27.20;1.00;;;;;;5151672;27;20347;-46
2022/07/11 02:15:46;;;;;;;1.33;1.15;;;27.10;1.00;;;;;;5153361;27;20034;-45
2022/07/11 02:18:12;;;;;;;6.68;1.40;;;27.10;1.00;;;;;;5150617;27;20019;-51
2022/07/11 02:20:40;;;;;;;2.00;1.27;;;27.10;1.00;;;;;;5146221;27;20067;-51
2022/07/11 02:23:06;;;;;;;3.20;1.25;;;27.20;1.00;;;;;;5141187;27;20387;-50
2022/07/11 02:25:32;;;;;;;1.98;1.30;;;27.20;1.00;;;;;;5154239;27;20518;-46
2022/07/11 02:27:58;;;;;;;2.92;1.40;;;27.00;1.00;;;;;;5154938;27;20054;-45
2022/07/11 02:30:24;;;;;;;1.05;0.95;;;26.70;1.00;;;;;;5155296;27;20125;-48
2022/07/11 02:32:51;;;;;;;2.42;1.40;;;26.80;1.00;;;;;;5141595;27;20020;-46
2022/07/11 02:35:17;;;;;;;3.15;1.30;;;26.80;1.00;;;;;;5150383;27;20038;-45
2022/07/11 02:37:43;;;;;;;1.33;1.20;;;26.80;1.00;;;;;;5154519;27;20164;-45
2022/07/11 02:40:10;;;;;;;5.28;1.35;;;26.90;1.00;;;;;;5151014;27;20080;-48
2022/07/11 02:42:35;;;;;;;0.88;0.88;;;27.00;1.00;;;;;;5145797;27;20475;-46
2022/07/11 02:45:02;;;;;;;3.35;1.70;;;27.00;1.00;;;;;;5156024;27;20042;-46
2022/07/11 02:47:28;;;;;;;1.25;0.90;;;27.10;1.00;;;;;;5146549;27;20023;-50
2022/07/11 02:49:53;;;;;;;2.45;1.33;;;27.00;1.00;;;;;;5144850;27;20034;-50
2022/07/11 02:52:19;;;;;;;1.08;1.05;;;27.00;1.00;;;;;;5144261;27;20056;-48
2022/07/11 02:54:45;;;;;;;3.08;1.30;;;27.00;1.00;;;;;;5155927;27;20031;-45
2022/07/11 02:57:10;;;;;;;2.40;1.33;;;26.90;1.00;;;;;;5150099;27;20027;-45
2022/07/11 02:59:36;;;;;;;2.90;1.23;;;26.90;1.00;;;;;;5142698;27;20046;-46
2022/07/11 03:02:04;;;;;;;1.58;1.10;;;26.90;1.00;;;;;;5152158;27;20452;-47
2022/07/11 03:04:33;;;;;;;0.93;0.80;;;26.90;1.00;;;;;;5143320;27;20022;-47
2022/07/11 03:06:59;;;;;;;3.05;1.27;;;26.90;1.00;;;;;;5151040;27;20034;-45
2022/07/11 03:09:24;;;;;;;1.30;1.20;;;26.90;1.00;;;;;;5154639;27;20130;-46
2022/07/11 03:11:50;;;;;;;2.22;1.27;;;26.90;1.00;;;;;;5150010;27;20022;-46
2022/07/11 03:14:16;;;;;;;3.78;1.27;;;26.80;1.00;;;;;;5143552;27;20031;-45
2022/07/11 03:16:42;;;;;;;1.75;1.10;;;26.90;1.00;;;;;;5152134;27;20027;-46
2022/07/11 03:19:07;;;;;;;1.85;1.05;;;26.80;1.00;;;;;;5149147;27;20041;-46
2022/07/11 03:21:33;;;;;;;2.10;1.25;;;26.80;1.00;;;;;;5153008;27;20015;-45
2022/07/11 03:23:59;;;;;;;2.75;1.02;;;26.80;1.00;;;;;;5148783;27;20038;-46
2022/07/11 03:26:24;;;;;;;1.85;1.17;;;26.80;1.00;;;;;;5154167;27;20054;-46
2022/07/11 03:28:50;;;;;;;2.35;1.33;;;26.80;1.00;;;;;;5139435;27;20030;-48
2022/07/11 03:31:15;;;;;;;1.42;1.15;;;26.80;1.00;;;;;;5153617;27;20217;-48
2022/07/11 03:33:41;;;;;;;3.60;1.30;;;26.80;1.00;;;;;;5146017;27;20469;-50
2022/07/11 03:36:07;;;;;;;2.60;1.17;;;26.70;1.00;;;;;;5155203;27;20023;-51
2022/07/11 03:38:33;;;;;;;2.33;1.30;;;26.80;1.00;;;;;;5139573;27;20018;-46
2022/07/11 03:40:58;;;;;;;2.70;1.40;;;26.80;1.00;;;;;;5151175;27;20060;-46
2022/07/11 03:43:24;;;;;;;4.25;1.30;;;26.70;1.00;;;;;;5139083;27;20027;-46
2022/07/11 03:45:50;;;;;;;3.45;1.35;;;26.80;1.00;;;;;;5153348;27;20066;-48
2022/07/11 03:48:15;;;;;;;1.92;1.20;;;26.70;1.00;;;;;;5139626;27;20023;-50
2022/07/11 03:50:41;;;;;;;2.22;1.23;;;26.70;1.00;;;;;;5153869;27;20388;-51
2022/07/11 03:53:07;;;;;;;2.78;1.20;;;26.70;1.00;;;;;;5150993;27;20026;-52
2022/07/11 03:55:33;;;;;;;1.83;1.17;;;26.70;1.00;;;;;;5150644;27;20360;-49
2022/07/11 03:57:59;;;;;;;1.20;1.05;;;26.60;1.00;;;;;;5145763;27;20025;-52
2022/07/11 04:00:25;;;;;;;1.25;1.15;;;26.60;1.00;;;;;;5151764;27;20449;-49
2022/07/11 04:02:50;;;;;;;2.42;1.23;;;26.50;1.00;;;;;;5150534;27;20023;-51
2022/07/11 04:05:16;;;;;;;2.92;1.35;;;26.20;1.00;;;;;;5149710;27;20018;-46
2022/07/11 04:07:42;;;;;;;3.10;1.52;;;26.20;1.00;;;;;;5148116;27;20054;-47
2022/07/11 04:10:08;;;;;;;2.78;1.30;;;26.40;1.00;;;;;;5137900;27;20015;-46
2022/07/11 04:12:34;;;;;;;1.40;1.30;;;26.50;1.00;;;;;;5144109;27;20114;-51
2022/07/11 04:15:00;;;;;;;1.95;1.38;;;26.50;1.00;;;;;;5132574;27;20160;-45
2022/07/11 04:17:27;;;;;;;1.95;1.20;;;26.40;1.00;;;;;;5138188;27;20022;-45
2022/07/11 04:19:54;;;;;;;4.43;1.50;;;26.50;1.00;;;;;;5144512;27;20015;-45
2022/07/11 04:22:19;;;;;;;1.85;1.20;;;26.50;1.00;;;;;;5149884;27;20070;-46
2022/07/11 04:24:45;;;;;;;2.25;1.10;;;26.50;1.00;;;;;;5152751;27;20133;-45
2022/07/11 04:27:11;;;;;;;3.20;1.45;;;26.50;1.00;;;;;;5152549;27;20027;-45
2022/07/11 04:29:36;;;;;;;5.30;1.38;;;26.50;1.00;;;;;;5153194;27;20114;-45
2022/07/11 04:32:02;;;;;;;4.20;1.45;;;26.50;1.00;;;;;;5152685;27;20015;-45
2022/07/11 04:34:28;;;;;;;3.55;1.40;;;26.50;1.00;;;;;;5152106;27;20037;-47
2022/07/11 04:36:53;;;;;;;2.60;1.08;;;26.50;1.00;;;;;;5153062;27;20073;-48
2022/07/11 04:39:19;;;;;;;3.00;1.40;;;26.50;1.00;;;;;;5147531;27;20161;-49
2022/07/11 04:41:44;;;;;;;4.18;1.60;;;26.50;1.00;;;;;;5150951;27;20030;-46
2022/07/11 04:44:10;;;;;;;4.30;1.48;;;26.50;1.00;;;;;;5151220;27;20510;-46
2022/07/11 04:46:36;;;;;;;4.38;1.40;;;26.40;1.00;;;;;;5150946;27;20019;-46
2022/07/11 04:49:02;;;;;;;3.53;1.40;;;26.50;1.00;;;;;;5151777;27;20459;-48
2022/07/11 04:51:27;;;;;;;2.30;1.55;;;26.50;1.00;;;;;;5151789;27;20023;-46
2022/07/11 04:53:53;;;;;;;5.22;1.58;;;26.50;1.00;;;;;;5149900;27;20051;-47
2022/07/11 04:56:19;;;;;;;3.65;1.67;;;26.50;1.00;;;;;;5153430;27;20113;-46
2022/07/11 04:58:44;;;;;;;3.78;1.63;;;26.40;1.00;;;;;;5140433;27;20035;-45
2022/07/11 05:01:10;;;;;;;8.38;1.80;;;26.50;1.00;;;;;;5145846;27;20403;-47
2022/07/11 05:03:36;;;;;;;3.55;1.50;;;26.50;1.00;;;;;;5151490;27;20102;-48
2022/07/11 05:06:03;;;;;;;2.65;2.20;;;26.50;1.00;;;;;;5150044;27;20023;-47
2022/07/11 05:08:29;;;;;;;6.85;1.90;;;26.50;1.00;;;;;;5152861;27;20030;-46
2022/07/11 05:10:55;;;;;;;3.67;1.83;;;26.50;1.00;;;;;;5152111;27;20034;-45
2022/07/11 05:13:21;;;;;;;4.18;1.65;;;26.50;1.00;;;;;;5151419;27;20023;-44
2022/07/11 05:19:08;;;;;;;4.03;2.03;;;26.50;1.00;;;;;;5136536;27;20224;-46
2022/07/11 05:21:33;;;;;;;4.05;1.67;;;26.50;1.00;;;;;;5139534;27;20551;-45
2022/07/11 05:23:59;;;;;;;3.03;1.73;;;26.50;1.00;;;;;;5150222;27;20035;-46
2022/07/11 05:26:24;;;;;;;4.85;2.05;;;26.50;1.00;;;;;;5151947;27;20122;-46
2022/07/11 05:28:50;;;;;;;4.10;2.28;;;26.40;1.00;;;;;;5153210;27;20106;-44
2022/07/11 05:31:16;;;;;;;2.55;1.52;;;26.50;1.00;;;;;;5150905;27;20447;-45
2022/07/11 05:33:41;;;;;;;6.60;1.90;;;26.50;1.00;;;;;;5152287;27;20067;-45
2022/07/11 05:36:08;;;;;;;1.52;1.42;;;26.50;1.00;;;;;;5139963;27;20080;-45
2022/07/11 05:38:34;;;;;;;4.95;2.10;;;26.60;1.00;;;;;;5141972;27;20483;-46
2022/07/11 05:40:59;;;;;;;2.78;1.73;;;26.60;1.00;;;;;;5140251;27;20038;-45
2022/07/11 05:43:25;;;;;;;5.72;1.67;;;26.60;1.00;;;;;;5152053;27;20054;-45
2022/07/11 05:45:51;;;;;;;2.40;1.50;;;26.50;1.00;;;;;;5146379;27;20050;-46
2022/07/11 05:48:16;;;;;;;3.20;1.55;;;26.30;1.00;;;;;;5151922;27;20038;-46
2022/07/11 05:50:43;;;;;;;2.30;1.52;;;26.50;1.00;;;;;;5147495;27;20114;-46
2022/07/11 05:53:10;;;;;;;2.40;1.60;;;26.40;1.00;;;;;;5149772;27;20023;-44
2022/07/11 05:55:36;;;;;;;2.15;1.63;;;26.40;1.00;;;;;;5146977;27;20041;-47
2022/07/11 05:58:02;;;;;;;5.07;2.08;;;26.50;1.00;;;;;;5141097;27;20663;-45
2022/07/11 06:00:28;;;;;;;2.78;1.85;;;26.40;1.00;;;;;;5149457;27;20041;-50
2022/07/11 06:02:54;;;;;;;3.50;1.77;;;26.30;1.00;;;;;;5152652;27;20011;-51
2022/07/11 06:05:19;;;;;;;2.10;1.73;;;26.50;1.00;;;;;;5150498;27;20030;-44
2022/07/11 06:10:32;;;;;;;4.63;1.88;;;26.40;1.00;;;;;;5151850;27;20428;-50
2022/07/11 06:12:57;;;;;;;2.35;1.60;;;26.40;1.00;;;;;;5148873;27;20152;-44
2022/07/11 06:15:23;;;;;;;5.18;1.50;;;26.40;1.00;;;;;;5147618;27;20122;-47
2022/07/11 06:17:49;;;;;;;4.65;1.73;;;26.50;1.00;;;;;;5149630;27;20022;-49
2022/07/11 06:20:15;;;;;;;3.75;1.55;;;26.40;1.00;;;;;;5149195;27;20105;-45
2022/07/11 06:22:40;;;;;;;2.85;1.60;;;26.50;1.00;;;;;;5153653;27;20095;-47
2022/07/11 06:25:07;;;;;;;2.03;1.50;;;26.50;1.00;;;;;;5153103;27;20356;-50
2022/07/11 06:27:32;;;;;;;4.28;1.85;;;26.60;1.00;;;;;;5153279;27;20083;-48
2022/07/11 06:29:58;;;;;;;4.65;2.00;;;26.60;1.00;;;;;;5152147;27;20035;-50
2022/07/11 06:32:23;;;;;;;2.40;1.52;;;26.60;1.00;;;;;;5151197;27;20021;-48
2022/07/11 06:34:49;;;;;;;2.45;1.50;;;26.60;1.00;;;;;;5149548;27;20471;-50
2022/07/11 06:37:15;;;;;;;3.88;1.98;;;26.70;1.00;;;;;;5149948;27;20026;-48
2022/07/11 06:39:41;;;;;;;1.70;1.60;;;26.60;1.00;;;;;;5150879;27;20027;-50
2022/07/11 06:42:06;;;;;;;4.18;2.15;;;26.50;1.00;;;;;;5153186;27;20027;-49
2022/07/11 06:44:32;;;;;;;3.10;1.88;;;26.40;1.00;;;;;;5155226;27;20159;-55
2022/07/11 06:46:58;;;;;;;4.80;1.85;;;26.40;1.00;;;;;;5156336;27;20047;-52
2022/07/11 06:49:24;;;;;;;5.28;1.90;;;26.40;1.00;;;;;;5151428;27;20060;-48
2022/07/11 06:51:49;;;;;;;3.45;2.08;;;26.40;1.00;;;;;;5153370;27;20034;-46
2022/07/11 06:54:15;;;;;;;3.42;1.70;;;26.30;1.00;;;;;;5141198;27;20027;-48
2022/07/11 06:56:41;;;;;;;2.67;1.88;;;26.30;1.00;;;;;;5154886;27;20133;-50
2022/07/11 06:59:06;;;;;;;3.53;1.63;;;26.40;1.00;;;;;;5153660;27;20060;-51
2022/07/11 07:01:32;;;;;;;2.30;1.75;;;26.40;1.00;;;;;;5152496;27;20113;-48
2022/07/11 07:03:58;;;;;;;3.28;1.70;;;26.40;1.00;;;;;;5152196;27;20027;-46
2022/07/11 07:06:23;;;;;;;2.80;1.85;;;26.40;1.00;;;;;;5154249;27;20019;-59
2022/07/11 07:08:49;;;;;;;7.93;1.98;;;26.50;1.00;;;;;;5154293;27;20475;-51
2022/07/11 07:11:14;;;;;;;2.47;1.63;;;26.50;1.00;;;;;;5150619;27;20035;-49
2022/07/11 07:13:40;;;;;;;4.63;1.80;;;26.50;1.00;;;;;;5153818;27;20031;-46
2022/07/11 07:16:06;;;;;;;2.97;1.70;;;26.50;1.00;;;;;;5152733;27;20122;-45
2022/07/11 07:18:32;;;;;;;4.55;2.03;;;26.60;1.00;;;;;;5153276;27;20019;-50
2022/07/11 07:20:58;;;;;;;3.70;1.75;;;26.60;1.00;;;;;;5152433;27;20038;-44
2022/07/11 07:23:24;;;;;;;2.42;1.58;;;26.60;1.00;;;;;;5155545;27;20368;-47
2022/07/11 07:25:50;;;;;;;4.05;1.95;;;26.70;1.00;;;;;;5148337;27;20573;-47
2022/07/11 07:28:15;;;;;;;4.38;2.53;;;26.70;1.00;;;;;;5147455;27;20509;-53
2022/07/11 07:30:41;;;;;;;2.28;1.73;;;26.80;1.00;;;;;;5153686;27;20531;-47
2022/07/11 07:33:07;;;;;;;4.72;2.22;;;26.80;1.00;;;;;;5147672;27;20337;-47
2022/07/11 07:35:33;;;;;;;5.00;2.15;;;26.90;1.00;;;;;;5145739;27;20042;-44
2022/07/11 07:38:00;;;;;;;4.75;1.92;;;26.90;1.00;;;;;;5147992;27;20050;-46
2022/07/11 07:40:26;;;;;;;5.18;2.60;;;27.00;1.00;;;;;;5143855;27;20452;-47
2022/07/11 07:42:52;;;;;;;4.40;2.10;;;27.00;1.00;;;;;;5140643;27;20053;-46
2022/07/11 07:45:17;;;;;;;5.40;2.15;;;27.00;1.00;;;;;;5144606;27;20058;-44
2022/07/11 07:47:43;;;;;;;5.53;2.25;;;27.00;1.00;;;;;;5148182;27;20396;-44
2022/07/11 07:50:09;;;;;;;4.90;1.83;;;27.00;1.00;;;;;;5153693;27;20527;-45
2022/07/11 07:52:35;;;;;;;3.58;2.15;;;27.00;1.00;;;;;;5151007;27;20026;-43
2022/07/11 07:55:00;;;;;;;4.80;2.40;;;27.00;1.00;;;;;;5149503;27;20121;-47
2022/07/11 07:57:26;;;;;;;7.25;2.00;;;27.10;1.00;;;;;;5153535;27;20094;-51
2022/07/11 08:01:34;;;;;;;6.03;2.20;;;27.10;1.00;;;;;;5148520;27;20034;-43
2022/07/11 08:02:37;;;;;;;4.43;2.08;;;27.10;1.00;;;;;;5141153;27;20042;-44
2022/07/11 08:05:03;;;;;;;5.00;2.42;;;27.20;1.00;;;;;;5149867;27;20027;-50
2022/07/11 08:07:29;;;;;;;3.97;2.67;;;27.30;1.00;;;;;;5142700;27;20493;-51
2022/07/11 08:09:54;;;;;;;3.53;1.80;;;27.30;1.00;;;;;;5141191;27;20459;-52
2022/07/11 08:12:20;;;;;;;15.23;3.08;;;27.30;1.00;;;;;;5149933;27;20019;-54
2022/07/11 08:14:46;;;;;;;6.53;2.05;;;27.40;1.00;;;;;;5150101;27;20038;-45
2022/07/11 08:17:11;;;;;;;4.18;2.13;;;27.50;1.00;;;;;;5152498;27;20065;-49
2022/07/11 08:19:37;;;;;;;4.13;1.98;;;27.50;1.00;;;;;;5149111;27;20050;-46
2022/07/11 08:22:02;;;;;;;9.18;2.03;;;27.50;1.00;;;;;;5146656;27;20475;-53
2022/07/11 08:24:28;;;;;;;5.15;2.13;;;27.60;1.00;;;;;;5152536;27;20054;-54
2022/07/11 08:26:54;;;;;;;3.97;1.75;;;27.60;1.00;;;;;;5149944;27;20057;-54
2022/07/11 08:29:19;;;;;;;3.47;1.80;;;27.60;1.00;;;;;;5140228;27;20060;-46
2022/07/11 08:31:45;;;;;;;4.03;1.95;;;27.60;1.00;;;;;;5149379;27;20023;-46
2022/07/11 08:34:10;;;;;;;2.90;1.40;;;27.70;1.00;;;;;;5149793;27;20395;-46
2022/07/11 08:36:36;;;;;;;2.85;1.80;;;27.70;1.00;;;;;;5152202;27;20027;-44
2022/07/11 08:39:02;;;;;;;4.30;1.75;;;27.70;1.00;;;;;;5144142;27;20024;-45
2022/07/11 08:41:28;;;;;;;4.47;1.85;;;27.90;1.00;;;;;;5151705;27;20040;-50
2022/07/11 08:43:54;;;;;;;3.90;1.73;;;28.00;1.00;;;;;;5150822;27;20516;-50
2022/07/11 08:46:20;;;;;;;3.05;1.98;;;28.20;1.00;;;;;;5147736;27;20057;-44
2022/07/11 08:48:47;;;;;;;2.03;1.80;;;28.20;1.00;;;;;;5152004;27;20026;-47
2022/07/11 08:51:13;;;;;;;4.10;1.60;;;28.40;1.00;;;;;;5149379;27;20019;-51
2022/07/11 08:53:44;;;;;;;3.92;1.50;;;28.60;1.00;;;;;;5142479;27;20539;-50
2022/07/11 08:56:14;;;;;;;3.60;1.70;;;28.60;1.00;;;;;;5145250;27;20777;-47
2022/07/11 08:58:42;;;;;;;2.80;1.42;;;28.70;1.00;;;;;;5143622;27;20027;-45
2022/07/11 09:01:08;;;;;;;4.68;2.30;;;28.80;1.00;;;;;;5149042;27;20377;-55
2022/07/11 09:03:36;;;;;;;5.03;1.98;;;28.80;1.00;;;;;;5146963;27;20022;-45
2022/07/11 09:06:02;;;;;;;2.63;2.42;;;28.80;1.00;;;;;;5150678;27;20031;-50
2022/07/11 09:08:29;;;;;;;2.38;2.17;;;28.80;1.00;;;;;;5146261;27;20029;-50
2022/07/11 09:10:55;;;;;;;4.65;2.00;;;28.80;1.00;;;;;;5147181;27;20023;-51
2022/07/11 09:13:26;;;;;;;5.00;2.60;;;28.80;1.00;;;;;;5145562;27;20694;-50
2022/07/11 09:16:01;;;;;;;4.82;2.15;;;28.80;1.00;;;;;;5147958;27;20091;-46
2022/07/11 09:18:32;;;;;;;2.92;1.80;;;28.90;1.00;;;;;;5147211;27;20498;-45
2022/07/11 09:26:36;;;;;;;2.35;2.15;;;29.10;1.00;;;;;;5146778;27;21590;-51
2022/07/11 09:29:11;;;;;;;3.83;1.88;;;28.80;1.00;;;;;;5143469;27;20084;-46
2022/07/11 09:31:38;;;;;;;3.80;1.88;;;29.00;1.00;;;;;;5145644;27;20121;-49
2022/07/11 09:34:08;;;;;;;4.35;2.13;;;29.00;1.00;;;;;;5148456;27;20089;-51
2022/07/11 09:36:52;;;;;;;2.80;1.88;;;29.10;1.00;;;;;;5144477;27;20092;-44
2022/07/11 09:39:19;;;;;;;4.70;2.20;;;29.20;1.00;;;;;;5144143;27;20027;-47
2022/07/11 09:41:47;;;;;;;4.95;2.05;;;29.50;1.00;;;;;;5149559;27;20031;-48
2022/07/11 09:44:16;;;;;;;4.03;2.20;;;29.50;1.00;;;;;;5139384;27;20500;-55
2022/07/11 09:46:48;;;;;;;3.47;2.53;;;29.70;1.00;;;;;;5146547;27;20561;-53
2022/07/11 09:49:15;;;;;;;4.80;1.92;;;29.50;1.00;;;;;;5145223;27;20446;-50
2022/07/11 09:51:41;;;;;;;1.77;1.70;;;29.70;1.00;;;;;;5147268;27;20019;-55
2022/07/11 09:54:08;;;;;;;4.75;1.92;;;29.70;1.00;;;;;;5143425;27;20712;-51
2022/07/11 09:56:38;;;;;;;2.03;1.92;;;29.60;1.00;;;;;;5138291;27;20045;-44
2022/07/11 09:59:04;;;;;;;4.32;2.08;;;29.60;1.00;;;;;;5150110;27;20103;-44
2022/07/11 10:01:31;;;;;;;2.58;2.30;;;29.90;1.00;;;;;;5150736;27;20037;-45
2022/07/11 10:03:58;;;;;;;2.78;2.08;;;29.70;1.00;;;;;;5150986;27;20125;-49
2022/07/11 10:06:24;;;;;;;4.03;1.80;;;30.10;1.00;;;;;;5151721;27;20101;-46
2022/07/11 10:08:53;;;;;;;5.22;2.10;;;30.00;1.00;;;;;;5154115;27;20133;-45
2022/07/11 10:11:20;;;;;;;5.18;2.00;;;30.00;1.00;;;;;;5148532;27;20015;-50
2022/07/11 10:13:46;;;;;;;1.80;1.70;;;30.20;1.00;;;;;;5149512;27;20038;-49
2022/07/11 10:16:32;;;;;;;4.32;1.70;;;30.50;1.00;;;;;;5148951;27;20538;-52
2022/07/11 10:19:22;;;;;;;4.30;1.90;;;30.30;1.00;;;;;;5154666;27;20116;-48
2022/07/11 10:22:02;;;;;;;2.35;1.58;;;30.20;1.00;;;;;;5153850;27;20023;-51
2022/07/11 10:25:01;;;;;;;2.67;1.80;;;30.10;1.00;;;;;;5153217;27;20039;-48
2022/07/11 10:27:35;;;;;;;3.70;1.70;;;29.80;1.00;;;;;;5142335;27;20489;-51
2022/07/11 10:30:01;;;;;;;6.15;2.00;;;30.30;1.00;;;;;;5151991;27;20023;-47
2022/07/11 10:32:27;;;;;;;3.53;1.75;;;30.70;1.00;;;;;;5153288;27;20156;-46
2022/07/11 10:35:20;;;;;;;3.90;1.83;;;30.50;1.00;;;;;;5146059;27;20138;-45
2022/07/11 10:37:47;;;;;;;3.55;1.80;;;31.30;1.00;;;;;;5146901;27;20417;-50
2022/07/11 10:40:13;;;;;;;4.78;1.92;;;30.50;1.00;;;;;;5152319;27;20147;-45
2022/07/11 10:42:40;;;;;;;4.13;1.70;;;30.50;1.00;;;;;;5152943;27;20086;-45
2022/07/11 10:45:10;;;;;;;1.98;1.80;;;30.70;1.00;;;;;;5147702;27;20046;-45
2022/07/11 10:48:32;;;;;;;6.95;1.92;;;31.00;1.00;;;;;;5152431;27;20022;-46
2022/07/11 10:51:08;;;;;;;2.80;2.20;;;31.40;1.00;;;;;;5150757;27;20109;-48
2022/07/11 10:53:49;;;;;;;2.22;2.13;;;31.50;1.00;;;;;;5150537;27;20022;-55
2022/07/11 10:56:34;;;;;;;2.33;2.10;;;31.30;1.00;;;;;;5144254;27;20054;-46
2022/07/11 10:59:20;;;;;;;2.55;2.00;;;31.20;1.00;;;;;;5150846;27;20037;-47
2022/07/11 11:02:11;;;;;;;2.70;2.10;;;31.40;1.00;;;;;;5148210;27;20506;-43
2022/07/11 11:04:44;;;;;;;2.50;1.75;;;31.80;1.00;;;;;;5151471;27;20145;-47
2022/07/11 11:07:28;;;;;;;2.05;1.92;;;31.90;1.00;;;;;;5151789;27;20054;-47
2022/07/11 11:09:55;;;;;;;2.80;1.73;;;31.60;1.00;;;;;;5151313;27;20030;-57
2022/07/11 11:12:40;;;;;;;1.90;1.77;;;32.10;1.00;;;;;;5147841;27;20041;-52
2022/07/11 11:15:43;;;;;;;3.78;2.03;;;32.50;1.00;;;;;;5149769;27;20043;-46
2022/07/11 11:18:24;;;;;;;2.97;2.35;;;32.70;1.00;;;;;;5142965;27;20488;-55
2022/07/11 11:21:09;;;;;;;2.15;1.98;;;32.50;1.00;;;;;;5152264;27;20034;-50
2022/07/11 11:23:43;;;;;;;2.10;2.00;;;32.40;1.00;;;;;;5148651;27;20355;-50
2022/07/11 11:26:11;;;;;;;4.03;2.22;;;32.30;1.00;;;;;;5144644;27;20046;-48
2022/07/11 11:28:38;;;;;;;2.00;1.90;;;32.50;1.00;;;;;;5148023;27;20067;-47
2022/07/11 11:31:06;;;;;;;4.47;2.25;;;33.20;1.00;;;;;;5150846;27;20045;-45
2022/07/11 11:33:36;;;;;;;4.57;2.55;;;34.10;1.00;;;;;;5150789;27;20023;-48
2022/07/11 11:36:03;;;;;;;4.63;2.85;;;35.20;1.00;;;;;;5152508;27;20058;-46
2022/07/11 11:38:32;;;;;;;3.95;2.20;;;36.50;1.00;;;;;;5150328;27;20135;-47
2022/07/11 11:40:58;;;;;;;2.40;2.20;;;36.10;1.00;;;;;;5149518;27;20113;-47
2022/07/11 11:43:25;;;;;;;2.47;2.35;;;34.90;1.00;;;;;;5149942;27;20471;-45
2022/07/11 11:45:51;;;;;;;4.88;3.67;;;34.50;1.00;;;;;;5147915;27;20046;-45
2022/07/11 11:48:37;;;;;;;3.30;2.90;;;34.90;1.00;;;;;;5151358;27;20027;-46
2022/07/11 11:51:11;;;;;;;3.58;3.28;;;36.60;1.00;;;;;;5149638;27;20035;-48
2022/07/11 11:53:41;;;;;;;;;;;38.30;1.00;;;;;;5153886;27;20037;-45
2022/07/11 11:56:15;;;;;;;3.28;2.45;;;38.50;1.00;;;;;;5144054;27;20362;-47
2022/07/11 11:58:43;;;;;;;2.88;2.42;;;39.80;1.00;;;;;;5148680;27;20023;-47
2022/07/11 12:01:12;;;;;;;4.28;2.60;;;40.00;1.00;;;;;;5145975;27;20019;-48
2022/07/11 12:03:55;;;;;;;3.00;2.60;;;39.10;1.00;;;;;;5148576;27;20026;-45
2022/07/11 12:06:35;;;;;;;4.93;3.00;;;39.40;1.00;;;;;;5141668;27;20037;-44
2022/07/11 12:09:03;;;;;;;3.22;3.00;;;39.30;1.00;;;;;;5145478;27;20023;-53
2022/07/11 12:11:29;;;;;;;3.08;2.88;;;40.40;1.00;;;;;;5149841;27;20042;-49
2022/07/11 12:14:00;;;;;;;3.55;2.60;;;40.70;1.00;;;;;;5148145;27;20045;-45
2022/07/11 12:16:41;;;;;;;3.00;2.80;;;40.70;1.00;;;;;;5150394;27;20038;-48
2022/07/11 12:19:33;;;;;;;3.72;3.40;;;39.70;1.00;;;;;;5148098;27;20084;-46
2022/07/11 12:22:02;;;;;;;5.45;2.88;;;38.40;1.00;;;;;;5151206;27;20027;-50
2022/07/11 12:24:28;;;;;;;3.28;3.08;;;39.30;1.00;;;;;;5150743;27;20113;-54
2022/07/11 12:26:55;;;;;;;3.00;2.90;;;39.70;1.00;;;;;;5152251;27;20114;-48
2022/07/11 12:29:23;;;;;;;3.47;3.17;;;41.30;1.00;;;;;;5136697;27;20064;-47
2022/07/11 12:32:00;;;;;;;3.58;3.38;;;41.40;1.00;;;;;;5146000;27;20026;-46
2022/07/11 12:34:44;;;;;;;3.35;3.10;;;41.10;1.00;;;;;;5143968;27;20054;-50
2022/07/11 12:37:12;;;;;;;3.97;3.53;;;39.60;1.00;;;;;;5140335;27;20031;-48
2022/07/11 12:39:45;;;;;;;5.18;3.92;;;39.10;1.00;;;;;;5148839;27;20015;-50
2022/07/11 12:42:32;;;;;;;3.85;3.53;;;39.00;1.00;;;;;;5147206;27;20097;-47
2022/07/11 12:45:11;;;;;;;3.95;3.65;;;38.50;1.00;;;;;;5145059;27;20551;-48
2022/07/11 12:47:41;;;;;;;4.10;3.85;;;38.50;1.00;;;;;;5148471;27;20499;-58
2022/07/11 12:50:12;;;;;;;4.45;4.05;;;39.20;1.00;;;;;;5136974;27;20035;-50
2022/07/11 12:52:39;;;;;;;4.75;4.10;;;39.10;1.00;;;;;;5148784;27;20027;-49
2022/07/11 12:55:07;;;;;;;4.25;4.00;;;39.80;1.00;;;;;;5147344;27;20039;-46
2022/07/11 12:57:33;;;;;;;4.07;3.85;;;40.40;1.00;;;;;;5141519;27;20034;-49
2022/07/11 13:00:16;;;;;;;4.22;3.83;;;39.50;1.00;;;;;;5148564;27;20030;-50
2022/07/11 13:02:52;;;;;;;4.32;4.10;;;38.70;1.00;;;;;;5151920;27;20348;-47
2022/07/11 13:05:18;;;;;;;4.10;3.90;;;38.50;1.00;;;;;;5152051;27;20098;-48
2022/07/11 13:13:13;;;;;;;4.22;3.63;;;38.80;1.00;;;;;;5151753;27;20046;-48
2022/07/11 13:15:39;;;;;;;4.82;4.00;;;38.20;1.00;;;;;;5138318;27;20034;-50
2022/07/11 13:18:05;;;;;;;4.47;4.07;;;37.90;1.00;;;;;;5151894;27;20038;-48
2022/07/11 13:20:32;;;;;;;4.00;3.67;;;37.60;1.00;;;;;;5152661;27;20058;-49